sensor_id;sensor_type;location;lat;lon;timestamp;pressure;altitude;pressure_sealevel;temperature;humidity
80333;BME280;69652;51.864;-2.246;2023-05-07T00:00:23;101254.78;;;13.12;85.37
80333;BME280;69652;51.864;-2.246;2023-05-07T00:02:49;101255.22;;;12.92;85.90
80333;BME280;69652;51.864;-2.246;2023-05-07T00:05:14;101269.97;;;12.91;85.97
80333;BME280;69652;51.864;-2.246;2023-05-07T00:07:40;101271.47;;;12.97;86.09
80333;BME280;69652;51.864;-2.246;2023-05-07T00:10:06;101267.41;;;13.08;85.40
80333;BME280;69652;51.864;-2.246;2023-05-07T00:12:32;101268.69;;;13.11;85.67
80333;BME280;69652;51.864;-2.246;2023-05-07T00:15:00;101270.16;;;13.08;85.68
80333;BME280;69652;51.864;-2.246;2023-05-07T00:17:26;101264.81;;;13.17;85.44
80333;BME280;69652;51.864;-2.246;2023-05-07T00:19:51;101268.22;;;13.09;85.52
80333;BME280;69652;51.864;-2.246;2023-05-07T00:22:17;101275.31;;;12.96;85.91
80333;BME280;69652;51.864;-2.246;2023-05-07T00:24:42;101268.66;;;12.88;86.16
80333;BME280;69652;51.864;-2.246;2023-05-07T00:27:08;101270.41;;;12.71;87.25
80333;BME280;69652;51.864;-2.246;2023-05-07T00:29:34;101270.09;;;12.72;87.25
80333;BME280;69652;51.864;-2.246;2023-05-07T00:31:59;101263.63;;;12.82;86.93
80333;BME280;69652;51.864;-2.246;2023-05-07T00:34:24;101270.69;;;12.83;86.43
80333;BME280;69652;51.864;-2.246;2023-05-07T00:36:50;101270.56;;;12.88;87.03
80333;BME280;69652;51.864;-2.246;2023-05-07T00:39:15;101279.44;;;12.93;86.02
80333;BME280;69652;51.864;-2.246;2023-05-07T00:41:41;101272.31;;;12.84;86.69
80333;BME280;69652;51.864;-2.246;2023-05-07T00:44:06;101263.22;;;12.75;87.28
80333;BME280;69652;51.864;-2.246;2023-05-07T00:46:32;101264.97;;;12.71;86.75
80333;BME280;69652;51.864;-2.246;2023-05-07T00:48:59;101270.19;;;12.67;87.53
80333;BME280;69652;51.864;-2.246;2023-05-07T00:51:25;101272.69;;;12.77;87.37
80333;BME280;69652;51.864;-2.246;2023-05-07T00:53:53;101267.97;;;12.69;87.69
80333;BME280;69652;51.864;-2.246;2023-05-07T00:56:21;101269.88;;;12.82;87.02
80333;BME280;69652;51.864;-2.246;2023-05-07T00:58:48;101273.72;;;12.81;87.15
80333;BME280;69652;51.864;-2.246;2023-05-07T01:01:13;101272.41;;;12.79;87.32
80333;BME280;69652;51.864;-2.246;2023-05-07T01:03:41;101269.16;;;12.90;87.05
80333;BME280;69652;51.864;-2.246;2023-05-07T01:06:07;101281.56;;;12.96;87.02
80333;BME280;69652;51.864;-2.246;2023-05-07T01:08:33;101271.16;;;12.98;87.21
80333;BME280;69652;51.864;-2.246;2023-05-07T01:11:01;101266.91;;;13.06;87.08
80333;BME280;69652;51.864;-2.246;2023-05-07T01:13:27;101276.94;;;12.83;87.39
80333;BME280;69652;51.864;-2.246;2023-05-07T01:15:52;101272.09;;;12.80;87.68
80333;BME280;69652;51.864;-2.246;2023-05-07T01:18:18;101274.31;;;12.92;87.11
80333;BME280;69652;51.864;-2.246;2023-05-07T01:20:44;101277.25;;;12.82;86.68
80333;BME280;69652;51.864;-2.246;2023-05-07T01:23:11;101274.31;;;12.78;87.61
80333;BME280;69652;51.864;-2.246;2023-05-07T01:25:36;101286.63;;;12.89;87.65
80333;BME280;69652;51.864;-2.246;2023-05-07T01:28:02;101281.09;;;12.81;88.38
80333;BME280;69652;51.864;-2.246;2023-05-07T01:30:28;101284.41;;;12.91;87.33
80333;BME280;69652;51.864;-2.246;2023-05-07T01:33:15;101291.84;;;12.99;87.36
80333;BME280;69652;51.864;-2.246;2023-05-07T01:35:47;101291.25;;;12.75;87.94
80333;BME280;69652;51.864;-2.246;2023-05-07T01:38:13;101281.81;;;12.73;88.18
80333;BME280;69652;51.864;-2.246;2023-05-07T01:40:39;101288.16;;;12.68;88.49
80333;BME280;69652;51.864;-2.246;2023-05-07T01:43:05;101292.19;;;12.71;87.85
80333;BME280;69652;51.864;-2.246;2023-05-07T01:45:32;101294.50;;;12.77;87.97
80333;BME280;69652;51.864;-2.246;2023-05-07T01:47:59;101300.06;;;12.86;87.43
80333;BME280;69652;51.864;-2.246;2023-05-07T01:50:25;101299.25;;;12.85;88.24
80333;BME280;69652;51.864;-2.246;2023-05-07T01:52:51;101297.44;;;12.81;88.17
80333;BME280;69652;51.864;-2.246;2023-05-07T01:55:17;101304.19;;;12.70;87.83
80333;BME280;69652;51.864;-2.246;2023-05-07T01:57:42;101307.94;;;12.60;88.31
80333;BME280;69652;51.864;-2.246;2023-05-07T02:00:08;101303.28;;;12.60;89.16
80333;BME280;69652;51.864;-2.246;2023-05-07T02:02:34;101314.50;;;12.73;87.96
80333;BME280;69652;51.864;-2.246;2023-05-07T02:05:00;101312.66;;;12.68;88.33
80333;BME280;69652;51.864;-2.246;2023-05-07T02:07:27;101318.00;;;12.87;88.10
80333;BME280;69652;51.864;-2.246;2023-05-07T02:09:52;101318.81;;;12.87;88.19
80333;BME280;69652;51.864;-2.246;2023-05-07T02:12:18;101325.78;;;12.93;88.07
80333;BME280;69652;51.864;-2.246;2023-05-07T02:14:43;101329.41;;;13.02;87.47
80333;BME280;69652;51.864;-2.246;2023-05-07T02:17:09;101335.44;;;12.99;87.68
80333;BME280;69652;51.864;-2.246;2023-05-07T02:19:34;101321.50;;;13.01;87.52
80333;BME280;69652;51.864;-2.246;2023-05-07T02:22:00;101333.13;;;12.93;87.38
80333;BME280;69652;51.864;-2.246;2023-05-07T02:24:25;101340.09;;;12.58;87.86
80333;BME280;69652;51.864;-2.246;2023-05-07T02:26:51;101348.53;;;12.43;87.98
80333;BME280;69652;51.864;-2.246;2023-05-07T02:29:16;101338.94;;;12.32;88.79
80333;BME280;69652;51.864;-2.246;2023-05-07T02:31:42;101348.03;;;12.27;88.62
80333;BME280;69652;51.864;-2.246;2023-05-07T02:34:07;101344.78;;;12.25;89.54
80333;BME280;69652;51.864;-2.246;2023-05-07T02:36:32;101352.66;;;12.26;89.27
80333;BME280;69652;51.864;-2.246;2023-05-07T02:38:58;101350.34;;;12.34;88.76
80333;BME280;69652;51.864;-2.246;2023-05-07T02:41:23;101356.28;;;12.22;88.60
80333;BME280;69652;51.864;-2.246;2023-05-07T02:43:49;101349.72;;;12.23;88.62
80333;BME280;69652;51.864;-2.246;2023-05-07T02:46:14;101359.38;;;12.15;88.62
80333;BME280;69652;51.864;-2.246;2023-05-07T02:48:41;101361.59;;;12.13;89.03
80333;BME280;69652;51.864;-2.246;2023-05-07T02:51:06;101355.34;;;12.13;88.45
80333;BME280;69652;51.864;-2.246;2023-05-07T02:53:32;101360.56;;;12.09;88.72
80333;BME280;69652;51.864;-2.246;2023-05-07T02:55:59;101360.84;;;12.08;88.42
80333;BME280;69652;51.864;-2.246;2023-05-07T02:58:25;101370.81;;;11.99;88.79
80333;BME280;69652;51.864;-2.246;2023-05-07T03:00:51;101372.13;;;12.01;88.43
80333;BME280;69652;51.864;-2.246;2023-05-07T03:03:17;101372.72;;;11.98;88.75
80333;BME280;69652;51.864;-2.246;2023-05-07T03:05:42;101371.69;;;11.94;88.95
80333;BME280;69652;51.864;-2.246;2023-05-07T03:08:08;101378.84;;;11.90;89.25
80333;BME280;69652;51.864;-2.246;2023-05-07T03:10:35;101375.91;;;11.86;89.00
80333;BME280;69652;51.864;-2.246;2023-05-07T03:13:01;101378.91;;;11.85;89.02
80333;BME280;69652;51.864;-2.246;2023-05-07T03:15:26;101388.47;;;11.82;89.15
80333;BME280;69652;51.864;-2.246;2023-05-07T03:17:52;101387.94;;;11.80;89.19
80333;BME280;69652;51.864;-2.246;2023-05-07T03:20:17;101387.75;;;11.77;89.26
80333;BME280;69652;51.864;-2.246;2023-05-07T03:22:42;101391.59;;;11.71;89.22
80333;BME280;69652;51.864;-2.246;2023-05-07T03:25:08;101388.16;;;11.65;89.46
80333;BME280;69652;51.864;-2.246;2023-05-07T03:27:34;101397.94;;;11.66;89.43
80333;BME280;69652;51.864;-2.246;2023-05-07T03:30:00;101395.50;;;11.65;89.78
80333;BME280;69652;51.864;-2.246;2023-05-07T03:32:25;101402.03;;;11.64;89.76
80333;BME280;69652;51.864;-2.246;2023-05-07T03:34:51;101400.44;;;11.63;89.59
80333;BME280;69652;51.864;-2.246;2023-05-07T03:37:16;101411.31;;;11.63;89.72
80333;BME280;69652;51.864;-2.246;2023-05-07T03:39:42;101415.63;;;11.64;89.96
80333;BME280;69652;51.864;-2.246;2023-05-07T03:42:07;101422.19;;;11.63;89.79
80333;BME280;69652;51.864;-2.246;2023-05-07T03:44:33;101420.84;;;11.60;89.71
80333;BME280;69652;51.864;-2.246;2023-05-07T03:46:58;101420.25;;;11.63;89.16
80333;BME280;69652;51.864;-2.246;2023-05-07T03:49:23;101427.63;;;11.63;89.67
80333;BME280;69652;51.864;-2.246;2023-05-07T03:51:49;101429.81;;;11.61;89.31
80333;BME280;69652;51.864;-2.246;2023-05-07T03:54:14;101426.88;;;11.57;89.59
80333;BME280;69652;51.864;-2.246;2023-05-07T03:56:40;101426.41;;;11.50;89.70
80333;BME280;69652;51.864;-2.246;2023-05-07T03:59:05;101425.09;;;11.47;89.76
80333;BME280;69652;51.864;-2.246;2023-05-07T04:01:31;101433.03;;;11.44;90.07
80333;BME280;69652;51.864;-2.246;2023-05-07T04:03:56;101438.16;;;11.45;90.13
80333;BME280;69652;51.864;-2.246;2023-05-07T04:06:22;101442.28;;;11.43;90.65
80333;BME280;69652;51.864;-2.246;2023-05-07T04:08:47;101438.53;;;11.39;90.12
80333;BME280;69652;51.864;-2.246;2023-05-07T04:11:13;101429.03;;;11.36;90.15
80333;BME280;69652;51.864;-2.246;2023-05-07T04:13:38;101429.34;;;11.35;90.24
80333;BME280;69652;51.864;-2.246;2023-05-07T04:16:04;101435.56;;;11.35;90.33
80333;BME280;69652;51.864;-2.246;2023-05-07T04:18:30;101436.66;;;11.34;89.17
80333;BME280;69652;51.864;-2.246;2023-05-07T04:20:56;101438.81;;;11.37;89.35
80333;BME280;69652;51.864;-2.246;2023-05-07T04:23:21;101435.28;;;11.37;89.13
80333;BME280;69652;51.864;-2.246;2023-05-07T04:25:47;101438.09;;;11.32;88.67
80333;BME280;69652;51.864;-2.246;2023-05-07T04:28:12;101444.00;;;11.34;88.92
80333;BME280;69652;51.864;-2.246;2023-05-07T04:30:38;101442.06;;;11.39;88.94
80333;BME280;69652;51.864;-2.246;2023-05-07T04:33:04;101454.84;;;11.39;88.83
80333;BME280;69652;51.864;-2.246;2023-05-07T04:35:29;101458.59;;;11.43;88.80
80333;BME280;69652;51.864;-2.246;2023-05-07T04:37:55;101451.53;;;11.42;88.83
80333;BME280;69652;51.864;-2.246;2023-05-07T04:40:20;101447.50;;;11.39;88.48
80333;BME280;69652;51.864;-2.246;2023-05-07T04:42:46;101443.72;;;11.35;87.90
80333;BME280;69652;51.864;-2.246;2023-05-07T04:45:11;101446.25;;;11.32;88.36
80333;BME280;69652;51.864;-2.246;2023-05-07T04:47:38;101444.63;;;11.31;88.36
80333;BME280;69652;51.864;-2.246;2023-05-07T04:50:04;101440.84;;;11.27;88.45
80333;BME280;69652;51.864;-2.246;2023-05-07T04:52:30;101446.56;;;11.25;88.64
80333;BME280;69652;51.864;-2.246;2023-05-07T04:54:56;101447.66;;;11.24;88.73
80333;BME280;69652;51.864;-2.246;2023-05-07T04:57:21;101443.69;;;11.16;88.26
80333;BME280;69652;51.864;-2.246;2023-05-07T04:59:47;101452.69;;;11.12;88.48
80333;BME280;69652;51.864;-2.246;2023-05-07T05:02:12;101451.31;;;11.14;88.01
80333;BME280;69652;51.864;-2.246;2023-05-07T05:04:38;101458.38;;;11.15;87.28
80333;BME280;69652;51.864;-2.246;2023-05-07T05:07:03;101462.44;;;11.18;87.09
80333;BME280;69652;51.864;-2.246;2023-05-07T05:09:29;101456.09;;;11.22;87.21
80333;BME280;69652;51.864;-2.246;2023-05-07T05:11:55;101459.63;;;11.23;86.93
80333;BME280;69652;51.864;-2.246;2023-05-07T05:14:20;101467.47;;;11.30;86.34
80333;BME280;69652;51.864;-2.246;2023-05-07T05:16:46;101475.38;;;11.26;86.31
80333;BME280;69652;51.864;-2.246;2023-05-07T05:19:11;101479.66;;;11.32;86.09
80333;BME280;69652;51.864;-2.246;2023-05-07T05:21:37;101482.38;;;11.32;85.50
80333;BME280;69652;51.864;-2.246;2023-05-07T05:24:02;101482.06;;;11.34;85.09
80333;BME280;69652;51.864;-2.246;2023-05-07T05:26:28;101485.84;;;11.38;85.30
80333;BME280;69652;51.864;-2.246;2023-05-07T05:28:53;101478.19;;;11.40;84.79
80333;BME280;69652;51.864;-2.246;2023-05-07T05:31:19;101482.31;;;11.37;84.82
80333;BME280;69652;51.864;-2.246;2023-05-07T05:33:44;101481.25;;;11.33;84.85
80333;BME280;69652;51.864;-2.246;2023-05-07T05:36:10;101489.59;;;11.42;84.73
80333;BME280;69652;51.864;-2.246;2023-05-07T05:38:37;101479.59;;;11.37;84.53
80333;BME280;69652;51.864;-2.246;2023-05-07T05:41:03;101480.22;;;11.53;84.37
80333;BME280;69652;51.864;-2.246;2023-05-07T05:43:28;101484.75;;;11.57;83.61
80333;BME280;69652;51.864;-2.246;2023-05-07T05:45:55;101490.56;;;11.51;83.64
80333;BME280;69652;51.864;-2.246;2023-05-07T05:48:21;101488.81;;;11.60;83.36
80333;BME280;69652;51.864;-2.246;2023-05-07T05:50:46;101502.38;;;11.65;82.42
80333;BME280;69652;51.864;-2.246;2023-05-07T05:53:12;101500.16;;;11.67;82.47
80333;BME280;69652;51.864;-2.246;2023-05-07T05:55:37;101509.88;;;11.73;83.54
80333;BME280;69652;51.864;-2.246;2023-05-07T05:58:03;101517.88;;;11.65;82.77
80333;BME280;69652;51.864;-2.246;2023-05-07T06:00:28;101513.41;;;11.74;83.33
80333;BME280;69652;51.864;-2.246;2023-05-07T06:02:54;101515.88;;;11.70;82.50
80333;BME280;69652;51.864;-2.246;2023-05-07T06:05:19;101521.44;;;11.60;82.07
80333;BME280;69652;51.864;-2.246;2023-05-07T06:07:45;101512.34;;;11.70;82.19
80333;BME280;69652;51.864;-2.246;2023-05-07T06:10:11;101515.16;;;11.65;82.35
80333;BME280;69652;51.864;-2.246;2023-05-07T06:12:36;101514.75;;;11.76;82.56
80333;BME280;69652;51.864;-2.246;2023-05-07T06:15:02;101513.00;;;11.62;82.68
80333;BME280;69652;51.864;-2.246;2023-05-07T06:17:27;101518.16;;;11.63;81.85
80333;BME280;69652;51.864;-2.246;2023-05-07T06:19:53;101528.88;;;11.78;82.39
80333;BME280;69652;51.864;-2.246;2023-05-07T06:22:18;101530.56;;;11.69;82.86
80333;BME280;69652;51.864;-2.246;2023-05-07T06:24:44;101531.81;;;11.82;82.39
80333;BME280;69652;51.864;-2.246;2023-05-07T06:27:09;101541.16;;;11.94;81.87
80333;BME280;69652;51.864;-2.246;2023-05-07T06:29:35;101535.72;;;11.94;81.37
80333;BME280;69652;51.864;-2.246;2023-05-07T06:32:07;101533.09;;;11.89;82.22
80333;BME280;69652;51.864;-2.246;2023-05-07T06:34:33;101541.63;;;12.02;82.11
80333;BME280;69652;51.864;-2.246;2023-05-07T06:36:58;101546.28;;;12.01;81.52
80333;BME280;69652;51.864;-2.246;2023-05-07T06:39:24;101548.03;;;12.29;81.00
80333;BME280;69652;51.864;-2.246;2023-05-07T06:41:49;101550.63;;;12.21;80.85
80333;BME280;69652;51.864;-2.246;2023-05-07T06:44:14;101557.00;;;12.30;80.69
80333;BME280;69652;51.864;-2.246;2023-05-07T06:46:40;101554.81;;;12.13;80.52
80333;BME280;69652;51.864;-2.246;2023-05-07T06:49:06;101563.69;;;12.19;80.61
80333;BME280;69652;51.864;-2.246;2023-05-07T06:51:31;101566.56;;;12.27;80.82
80333;BME280;69652;51.864;-2.246;2023-05-07T06:53:57;101576.06;;;12.30;81.07
80333;BME280;69652;51.864;-2.246;2023-05-07T06:56:22;101574.47;;;12.48;79.91
80333;BME280;69652;51.864;-2.246;2023-05-07T06:58:48;101575.88;;;12.26;80.33
80333;BME280;69652;51.864;-2.246;2023-05-07T07:01:14;101573.84;;;12.51;79.42
80333;BME280;69652;51.864;-2.246;2023-05-07T07:03:40;101572.75;;;12.52;78.80
80333;BME280;69652;51.864;-2.246;2023-05-07T07:06:05;101574.06;;;12.73;79.54
80333;BME280;69652;51.864;-2.246;2023-05-07T07:08:31;101566.44;;;12.56;80.17
80333;BME280;69652;51.864;-2.246;2023-05-07T07:10:57;101569.38;;;12.41;80.55
80333;BME280;69652;51.864;-2.246;2023-05-07T07:13:23;101566.72;;;12.55;79.80
80333;BME280;69652;51.864;-2.246;2023-05-07T07:15:48;101570.25;;;12.55;79.77
80333;BME280;69652;51.864;-2.246;2023-05-07T07:18:14;101570.84;;;12.71;79.03
80333;BME280;69652;51.864;-2.246;2023-05-07T07:20:40;101573.81;;;12.88;77.67
80333;BME280;69652;51.864;-2.246;2023-05-07T07:23:05;101578.63;;;12.78;78.69
80333;BME280;69652;51.864;-2.246;2023-05-07T07:25:31;101575.94;;;13.24;78.02
80333;BME280;69652;51.864;-2.246;2023-05-07T07:27:57;101572.53;;;12.99;77.85
80333;BME280;69652;51.864;-2.246;2023-05-07T07:30:22;101571.69;;;12.85;78.70
80333;BME280;69652;51.864;-2.246;2023-05-07T07:32:48;101579.53;;;13.06;77.41
80333;BME280;69652;51.864;-2.246;2023-05-07T07:35:13;101577.69;;;13.20;78.16
80333;BME280;69652;51.864;-2.246;2023-05-07T07:37:38;101575.19;;;13.51;75.97
80333;BME280;69652;51.864;-2.246;2023-05-07T07:40:04;101568.69;;;13.19;78.03
80333;BME280;69652;51.864;-2.246;2023-05-07T07:42:30;101570.75;;;13.09;77.29
80333;BME280;69652;51.864;-2.246;2023-05-07T07:44:55;101567.50;;;13.39;76.32
80333;BME280;69652;51.864;-2.246;2023-05-07T07:47:22;101570.25;;;13.53;75.33
80333;BME280;69652;51.864;-2.246;2023-05-07T07:49:47;101578.63;;;13.43;76.08
80333;BME280;69652;51.864;-2.246;2023-05-07T07:52:13;101576.25;;;13.22;77.18
80333;BME280;69652;51.864;-2.246;2023-05-07T07:54:38;101568.72;;;13.47;75.90
80333;BME280;69652;51.864;-2.246;2023-05-07T07:57:04;101571.22;;;13.29;76.32
80333;BME280;69652;51.864;-2.246;2023-05-07T07:59:30;101580.72;;;13.32;75.68
80333;BME280;69652;51.864;-2.246;2023-05-07T08:01:56;101580.63;;;13.37;76.29
80333;BME280;69652;51.864;-2.246;2023-05-07T08:04:22;101587.13;;;13.68;74.86
80333;BME280;69652;51.864;-2.246;2023-05-07T08:06:48;101582.28;;;13.79;75.30
80333;BME280;69652;51.864;-2.246;2023-05-07T08:09:13;101579.63;;;13.60;75.57
80333;BME280;69652;51.864;-2.246;2023-05-07T08:11:39;101581.44;;;13.51;75.31
80333;BME280;69652;51.864;-2.246;2023-05-07T08:14:05;101589.72;;;13.60;75.66
80333;BME280;69652;51.864;-2.246;2023-05-07T08:16:30;101585.41;;;13.86;75.09
80333;BME280;69652;51.864;-2.246;2023-05-07T08:18:56;101585.78;;;14.07;75.04
80333;BME280;69652;51.864;-2.246;2023-05-07T08:21:22;101587.91;;;14.10;74.40
80333;BME280;69652;51.864;-2.246;2023-05-07T08:23:48;101596.91;;;14.10;73.16
80333;BME280;69652;51.864;-2.246;2023-05-07T08:26:13;101605.78;;;14.16;74.09
80333;BME280;69652;51.864;-2.246;2023-05-07T08:28:38;101602.41;;;14.47;72.65
80333;BME280;69652;51.864;-2.246;2023-05-07T08:31:05;101603.22;;;14.47;73.81
80333;BME280;69652;51.864;-2.246;2023-05-07T08:33:31;101610.88;;;14.59;72.94
80333;BME280;69652;51.864;-2.246;2023-05-07T08:35:56;101614.75;;;14.44;72.97
80333;BME280;69652;51.864;-2.246;2023-05-07T08:38:22;101619.44;;;14.16;74.35
80333;BME280;69652;51.864;-2.246;2023-05-07T08:40:47;101614.97;;;14.34;73.61
80333;BME280;69652;51.864;-2.246;2023-05-07T08:43:13;101615.25;;;14.60;73.34
80333;BME280;69652;51.864;-2.246;2023-05-07T08:45:41;101627.91;;;14.78;72.02
80333;BME280;69652;51.864;-2.246;2023-05-07T08:48:15;101622.75;;;14.76;72.01
80333;BME280;69652;51.864;-2.246;2023-05-07T08:50:40;101620.63;;;14.51;73.38
80333;BME280;69652;51.864;-2.246;2023-05-07T08:53:06;101619.81;;;14.51;72.93
80333;BME280;69652;51.864;-2.246;2023-05-07T08:55:31;101627.91;;;14.78;72.53
80333;BME280;69652;51.864;-2.246;2023-05-07T08:57:58;101619.72;;;15.53;70.18
80333;BME280;69652;51.864;-2.246;2023-05-07T09:00:24;101622.31;;;15.81;69.66
80333;BME280;69652;51.864;-2.246;2023-05-07T09:02:50;101627.66;;;15.95;69.41
80333;BME280;69652;51.864;-2.246;2023-05-07T09:05:15;101630.69;;;15.53;70.92
80333;BME280;69652;51.864;-2.246;2023-05-07T09:07:41;101628.63;;;14.84;73.13
80333;BME280;69652;51.864;-2.246;2023-05-07T09:10:06;101628.72;;;15.45;72.13
80333;BME280;69652;51.864;-2.246;2023-05-07T09:12:32;101632.44;;;15.80;70.31
80333;BME280;69652;51.864;-2.246;2023-05-07T09:15:00;101616.25;;;16.10;69.32
80333;BME280;69652;51.864;-2.246;2023-05-07T09:17:26;101625.09;;;16.07;69.33
80333;BME280;69652;51.864;-2.246;2023-05-07T09:19:52;101621.63;;;16.32;68.04
80333;BME280;69652;51.864;-2.246;2023-05-07T09:22:18;101631.88;;;16.01;69.10
80333;BME280;69652;51.864;-2.246;2023-05-07T09:24:48;101627.31;;;15.87;70.34
80333;BME280;69652;51.864;-2.246;2023-05-07T09:27:14;101636.03;;;15.89;70.21
80333;BME280;69652;51.864;-2.246;2023-05-07T09:29:39;101628.53;;;15.73;70.82
80333;BME280;69652;51.864;-2.246;2023-05-07T09:32:05;101645.75;;;15.73;71.12
80333;BME280;69652;51.864;-2.246;2023-05-07T09:34:31;101645.19;;;15.94;69.86
80333;BME280;69652;51.864;-2.246;2023-05-07T09:37:01;101645.19;;;15.94;69.84
80333;BME280;69652;51.864;-2.246;2023-05-07T09:39:42;101658.72;;;16.38;68.79
80333;BME280;69652;51.864;-2.246;2023-05-07T09:42:08;101655.31;;;16.41;68.07
80333;BME280;69652;51.864;-2.246;2023-05-07T09:44:34;101658.06;;;16.41;68.71
80333;BME280;69652;51.864;-2.246;2023-05-07T09:47:00;101656.75;;;16.30;69.02
80333;BME280;69652;51.864;-2.246;2023-05-07T09:49:30;101651.25;;;16.30;66.84
80333;BME280;69652;51.864;-2.246;2023-05-07T09:51:58;101663.25;;;16.51;67.38
80333;BME280;69652;51.864;-2.246;2023-05-07T09:54:25;101664.09;;;16.78;65.90
80333;BME280;69652;51.864;-2.246;2023-05-07T09:56:52;101668.28;;;17.01;66.50
80333;BME280;69652;51.864;-2.246;2023-05-07T09:59:18;101670.44;;;17.59;62.98
80333;BME280;69652;51.864;-2.246;2023-05-07T10:01:45;101672.13;;;17.26;65.88
80333;BME280;69652;51.864;-2.246;2023-05-07T10:04:12;101671.22;;;16.96;66.38
80333;BME280;69652;51.864;-2.246;2023-05-07T10:06:38;101655.38;;;18.92;60.50
80333;BME280;69652;51.864;-2.246;2023-05-07T10:09:04;101639.25;;;20.29;56.17
80333;BME280;69652;51.864;-2.246;2023-05-07T10:11:36;101649.53;;;19.59;56.72
80333;BME280;69652;51.864;-2.246;2023-05-07T10:14:04;101653.97;;;17.59;62.27
80333;BME280;69652;51.864;-2.246;2023-05-07T10:16:34;101629.38;;;19.22;59.63
80333;BME280;69652;51.864;-2.246;2023-05-07T10:19:05;101636.84;;;20.03;56.85
80333;BME280;69652;51.864;-2.246;2023-05-07T10:21:36;101637.28;;;21.22;54.88
80333;BME280;69652;51.864;-2.246;2023-05-07T10:26:34;101633.91;;;22.07;52.21
80333;BME280;69652;51.864;-2.246;2023-05-07T10:29:07;101632.94;;;22.15;50.75
80333;BME280;69652;51.864;-2.246;2023-05-07T10:32:02;101652.81;;;21.42;52.04
80333;BME280;69652;51.864;-2.246;2023-05-07T10:34:39;101652.13;;;21.92;52.60
80333;BME280;69652;51.864;-2.246;2023-05-07T10:37:06;101658.19;;;20.43;55.76
80333;BME280;69652;51.864;-2.246;2023-05-07T10:39:32;101670.50;;;19.19;58.58
80333;BME280;69652;51.864;-2.246;2023-05-07T10:42:08;101654.22;;;20.68;55.92
80333;BME280;69652;51.864;-2.246;2023-05-07T10:44:33;101657.19;;;21.43;53.00
80333;BME280;69652;51.864;-2.246;2023-05-07T10:47:05;101661.19;;;20.50;55.23
80333;BME280;69652;51.864;-2.246;2023-05-07T10:49:30;101665.75;;;19.97;56.49
80333;BME280;69652;51.864;-2.246;2023-05-07T10:52:22;101675.81;;;19.03;58.88
80333;BME280;69652;51.864;-2.246;2023-05-07T10:57:40;101680.34;;;19.86;56.41
80333;BME280;69652;51.864;-2.246;2023-05-07T11:05:24;101689.75;;;18.86;60.13
80333;BME280;69652;51.864;-2.246;2023-05-07T11:07:54;101677.81;;;20.53;55.65
80333;BME280;69652;51.864;-2.246;2023-05-07T11:10:20;101686.00;;;21.30;54.04
80333;BME280;69652;51.864;-2.246;2023-05-07T11:12:51;101685.22;;;21.17;53.99
80333;BME280;69652;51.864;-2.246;2023-05-07T11:15:41;101683.44;;;21.09;55.46
80333;BME280;69652;51.864;-2.246;2023-05-07T11:18:08;101689.88;;;19.88;57.94
80333;BME280;69652;51.864;-2.246;2023-05-07T11:26:09;101671.22;;;21.82;54.05
80333;BME280;69652;51.864;-2.246;2023-05-07T11:28:42;101679.44;;;21.50;52.28
80333;BME280;69652;51.864;-2.246;2023-05-07T11:31:08;101673.63;;;21.40;53.06
80333;BME280;69652;51.864;-2.246;2023-05-07T11:33:35;101673.16;;;21.22;54.45
80333;BME280;69652;51.864;-2.246;2023-05-07T11:36:03;101665.16;;;21.05;51.87
80333;BME280;69652;51.864;-2.246;2023-05-07T11:38:29;101661.72;;;21.36;52.84
80333;BME280;69652;51.864;-2.246;2023-05-07T11:40:59;101664.31;;;21.76;52.01
80333;BME280;69652;51.864;-2.246;2023-05-07T11:43:26;101666.09;;;20.97;53.31
80333;BME280;69652;51.864;-2.246;2023-05-07T11:45:52;101669.00;;;22.03;52.18
80333;BME280;69652;51.864;-2.246;2023-05-07T11:48:18;101670.06;;;22.49;51.78
80333;BME280;69652;51.864;-2.246;2023-05-07T11:50:59;101666.88;;;22.31;51.33
80333;BME280;69652;51.864;-2.246;2023-05-07T11:53:26;101664.63;;;22.72;52.92
80333;BME280;69652;51.864;-2.246;2023-05-07T11:55:57;101669.13;;;22.96;48.70
80333;BME280;69652;51.864;-2.246;2023-05-07T11:58:24;101676.59;;;22.06;50.71
80333;BME280;69652;51.864;-2.246;2023-05-07T12:00:52;101678.25;;;22.26;51.30
80333;BME280;69652;51.864;-2.246;2023-05-07T12:03:18;101675.94;;;22.13;49.99
80333;BME280;69652;51.864;-2.246;2023-05-07T12:05:47;101683.69;;;22.07;50.22
80333;BME280;69652;51.864;-2.246;2023-05-07T12:08:16;101682.88;;;21.91;51.59
80333;BME280;69652;51.864;-2.246;2023-05-07T12:10:46;101678.00;;;22.00;50.66
80333;BME280;69652;51.864;-2.246;2023-05-07T12:13:15;101681.91;;;22.15;51.59
80333;BME280;69652;51.864;-2.246;2023-05-07T12:15:42;101679.28;;;21.03;53.59
80333;BME280;69652;51.864;-2.246;2023-05-07T12:18:08;101686.09;;;21.93;51.75
80333;BME280;69652;51.864;-2.246;2023-05-07T12:20:35;101675.53;;;21.51;50.07
80333;BME280;69652;51.864;-2.246;2023-05-07T12:23:01;101675.38;;;22.39;50.98
80333;BME280;69652;51.864;-2.246;2023-05-07T12:25:30;101676.16;;;23.32;50.29
80333;BME280;69652;51.864;-2.246;2023-05-07T12:27:56;101671.84;;;23.76;47.72
80333;BME280;69652;51.864;-2.246;2023-05-07T12:30:24;101677.03;;;23.78;47.17
80333;BME280;69652;51.864;-2.246;2023-05-07T12:32:53;101674.81;;;23.87;48.31
80333;BME280;69652;51.864;-2.246;2023-05-07T12:35:26;101675.03;;;24.80;46.74
80333;BME280;69652;51.864;-2.246;2023-05-07T12:37:59;101678.28;;;23.81;45.93
80333;BME280;69652;51.864;-2.246;2023-05-07T12:40:40;101668.41;;;26.03;43.62
80333;BME280;69652;51.864;-2.246;2023-05-07T12:43:07;101670.88;;;25.64;43.75
80333;BME280;69652;51.864;-2.246;2023-05-07T12:45:40;101678.91;;;24.42;45.14
80333;BME280;69652;51.864;-2.246;2023-05-07T12:48:06;101682.38;;;24.13;47.78
80333;BME280;69652;51.864;-2.246;2023-05-07T12:50:32;101675.81;;;24.77;46.73
80333;BME280;69652;51.864;-2.246;2023-05-07T12:52:58;101684.28;;;24.09;45.99